createdAt,value
2022-09-28T00:01:28.749Z,17.48
2022-09-28T00:04:00.318Z,17.46
2022-09-28T00:06:30.583Z,17.47
2022-09-28T00:09:00.815Z,17.48
2022-09-28T00:15:25.313Z,17.55
2022-09-28T00:17:55.142Z,17.61
2022-09-28T00:20:23.878Z,17.65
2022-09-28T00:22:52.995Z,17.65
2022-09-28T00:25:22.320Z,17.70
2022-09-28T00:27:51.606Z,17.74
2022-09-28T00:30:20.354Z,17.71
2022-09-28T00:32:48.543Z,17.74
2022-09-28T00:35:16.909Z,17.74
2022-09-28T00:37:46.067Z,17.79
2022-09-28T00:40:14.373Z,17.76
2022-09-28T00:42:43.161Z,17.80
2022-09-28T00:45:13.361Z,17.88
2022-09-28T00:47:54.895Z,17.84
2022-09-28T00:50:35.743Z,17.81
2022-09-28T00:53:17.898Z,17.80
2022-09-28T00:55:49.181Z,17.84
2022-09-28T00:58:33.911Z,17.77
2022-09-28T01:01:03.774Z,17.79
2022-09-28T01:03:34.131Z,17.79
2022-09-28T01:06:05.314Z,17.79
2022-09-28T01:08:34.838Z,17.74
2022-09-28T01:11:11.430Z,17.77
2022-09-28T01:13:42.197Z,17.82
2022-09-28T01:16:24.688Z,17.89
2022-09-28T01:19:05.686Z,17.90
2022-09-28T01:22:00.098Z,17.89
2022-09-28T01:24:45.651Z,17.87
2022-09-28T01:27:41.231Z,17.88
2022-09-28T01:30:23.847Z,17.90
2022-09-28T01:33:04.123Z,17.88
2022-09-28T01:35:38.256Z,17.82
2022-09-28T01:38:13.681Z,17.89
2022-09-28T01:40:45.022Z,17.87
2022-09-28T01:43:27.746Z,17.90
2022-09-28T01:46:10.091Z,17.94
2022-09-28T01:49:05.641Z,17.97
2022-09-28T01:51:57.102Z,17.95
2022-09-28T01:58:15.050Z,17.97
2022-09-28T02:00:53.461Z,17.98
2022-09-28T02:03:28.023Z,17.93
2022-09-28T02:06:08.583Z,17.93
2022-09-28T02:08:51.289Z,17.93
2022-09-28T02:11:23.115Z,17.93
2022-09-28T02:14:10.457Z,17.95
2022-09-28T02:16:55.417Z,17.96
2022-09-28T02:19:32.551Z,17.96
2022-09-28T02:22:05.412Z,17.98
2022-09-28T02:24:51.155Z,17.99
2022-09-28T02:27:38.424Z,17.96
2022-09-28T02:30:10.814Z,17.85
2022-09-28T02:32:43.504Z,17.84
2022-09-28T02:35:15.602Z,17.90
2022-09-28T02:43:18.934Z,17.64
2022-09-28T02:46:05.735Z,17.59
2022-09-28T02:49:24.368Z,17.59
2022-09-28T02:52:09.089Z,17.70
2022-09-28T02:54:59.577Z,17.74
2022-09-28T02:57:49.965Z,17.81
2022-09-28T03:00:23.580Z,17.84
2022-09-28T03:03:05.996Z,17.91
2022-09-28T03:05:59.195Z,17.92
2022-09-28T03:08:46.243Z,17.95
2022-09-28T03:11:32.214Z,17.96
2022-09-28T03:14:02.161Z,18.02
2022-09-28T03:16:32.485Z,17.97
2022-09-28T03:19:00.842Z,17.98
2022-09-28T03:21:29.006Z,17.94
2022-09-28T03:23:57.946Z,18.01
2022-09-28T03:26:25.761Z,18.03
2022-09-28T03:28:54.197Z,18.03
2022-09-28T03:31:24.742Z,18.03
2022-09-28T03:33:53.351Z,18.00
2022-09-28T03:36:21.616Z,18.06
2022-09-28T03:38:51.749Z,18.01
2022-09-28T03:41:20.744Z,17.99
2022-09-28T03:43:49.932Z,18.06
2022-09-28T03:46:17.956Z,18.05
2022-09-28T03:48:48.596Z,18.03
2022-09-28T03:51:32.478Z,18.03
2022-09-28T03:54:04.338Z,18.00
2022-09-28T03:56:32.886Z,18.02
2022-09-28T03:59:04.111Z,17.97
2022-09-28T04:01:33.850Z,18.00
2022-09-28T04:04:03.517Z,17.98
2022-09-28T04:06:35.771Z,18.02
2022-09-28T04:09:05.272Z,18.03
2022-09-28T04:11:53.165Z,17.99
2022-09-28T04:14:25.062Z,17.93
2022-09-28T04:16:56.330Z,17.96
2022-09-28T04:19:28.116Z,17.93
2022-09-28T04:21:59.608Z,17.86
2022-09-28T04:24:29.682Z,17.90
2022-09-28T04:27:20.353Z,17.80
2022-09-28T04:29:48.438Z,17.87
2022-09-28T04:35:13.604Z,17.95
2022-09-28T04:37:43.444Z,17.91
2022-09-28T04:40:16.067Z,17.88
2022-09-28T04:42:46.527Z,17.95
2022-09-28T04:45:16.036Z,17.94
2022-09-28T04:47:45.894Z,17.98
2022-09-28T04:50:20.227Z,18.03
2022-09-28T04:52:51.962Z,18.02
2022-09-28T04:55:25.974Z,18.11
2022-09-28T04:57:54.267Z,18.16
2022-09-28T05:00:22.510Z,18.16
2022-09-28T05:02:52.020Z,18.21
2022-09-28T05:08:07.518Z,18.20
2022-09-28T05:13:29.372Z,18.08
2022-09-28T05:16:22.280Z,18.01
2022-09-28T05:18:56.207Z,17.96
2022-09-28T05:24:19.160Z,18.10
2022-09-28T05:27:01.946Z,18.06
2022-09-28T05:29:35.897Z,18.15
2022-09-28T05:32:05.547Z,18.20
2022-09-28T05:37:31.241Z,18.32
2022-09-28T05:39:59.951Z,18.33
2022-09-28T05:42:49.208Z,18.42
2022-09-28T05:45:28.616Z,18.43
2022-09-28T05:47:58.776Z,18.49
2022-09-28T05:50:27.834Z,18.47
2022-09-28T05:53:02.591Z,18.62
2022-09-28T05:55:38.623Z,18.64
2022-09-28T05:58:16.311Z,18.70
2022-09-28T06:00:45.308Z,18.78
2022-09-28T06:03:15.771Z,18.82
2022-09-28T06:05:44.231Z,18.85
2022-09-28T06:08:15.530Z,18.85
2022-09-28T06:10:45.653Z,18.93
2022-09-28T06:13:16.219Z,18.91
2022-09-28T06:15:47.195Z,18.96
2022-09-28T06:18:19.901Z,18.97
2022-09-28T06:20:51.452Z,18.97
2022-09-28T06:23:19.683Z,18.96
2022-09-28T06:25:51.042Z,18.95
2022-09-28T06:28:19.079Z,18.96
2022-09-28T06:30:48.513Z,18.94
2022-09-28T06:33:16.936Z,18.93
2022-09-28T06:35:44.956Z,19.00
2022-09-28T06:38:12.790Z,19.01
2022-09-28T06:40:43.139Z,18.97
2022-09-28T06:43:17.433Z,19.02
2022-09-28T06:45:51.935Z,19.00
2022-09-28T06:48:20.122Z,19.04
2022-09-28T06:50:50.786Z,19.04
2022-09-28T06:53:19.755Z,19.06
2022-09-28T06:55:49.476Z,19.12
2022-09-28T06:58:20.583Z,19.17
2022-09-28T07:00:52.639Z,19.15
2022-09-28T07:06:12.580Z,19.11
2022-09-28T07:08:40.440Z,19.14
2022-09-28T07:11:09.058Z,19.14
2022-09-28T07:13:53.710Z,19.09
2022-09-28T07:16:26.773Z,19.11
2022-09-28T07:18:57.220Z,19.06
2022-09-28T07:21:30.295Z,19.13
2022-09-28T07:24:00.659Z,19.18
2022-09-28T07:26:28.683Z,19.15
2022-09-28T07:28:57.564Z,19.13
2022-09-28T07:31:25.717Z,19.19
2022-09-28T07:33:54.535Z,19.12
2022-09-28T07:36:24.207Z,19.04
2022-09-28T07:38:52.316Z,19.06
2022-09-28T07:41:32.855Z,19.11
2022-09-28T07:44:06.341Z,19.08
2022-09-28T07:46:36.243Z,19.11
2022-09-28T07:49:08.486Z,19.08
2022-09-28T07:51:39.873Z,19.14
2022-09-28T07:54:08.684Z,19.12
2022-09-28T07:56:38.293Z,19.05
2022-09-28T07:59:06.659Z,18.96
2022-09-28T08:01:34.327Z,18.96
2022-09-28T08:04:02.460Z,18.98
2022-09-28T08:06:30.601Z,18.90
2022-09-28T08:09:00.144Z,18.90
2022-09-28T08:11:27.994Z,18.93
2022-09-28T08:13:56.866Z,18.95
2022-09-28T08:16:25.818Z,19.00
2022-09-28T08:18:57.346Z,19.07
2022-09-28T08:21:44.065Z,18.96
2022-09-28T08:24:14.110Z,18.93
2022-09-28T08:26:44.814Z,18.93
2022-09-28T08:29:12.881Z,18.98
2022-09-28T08:31:42.655Z,18.94
2022-09-28T08:34:10.986Z,18.95
2022-09-28T08:36:39.074Z,19.00
2022-09-28T08:39:07.537Z,19.01
2022-09-28T08:41:53.437Z,19.01
2022-09-28T08:44:25.198Z,19.08
2022-09-28T08:47:04.124Z,19.17
2022-09-28T08:49:45.593Z,19.13
2022-09-28T08:52:23.769Z,19.35
2022-09-28T08:55:03.060Z,19.63
2022-09-28T08:57:38.590Z,19.74
2022-09-28T09:00:11.562Z,19.79
2022-09-28T09:02:42.556Z,19.92
2022-09-28T09:05:15.016Z,20.15
2022-09-28T09:08:18.514Z,20.25
2022-09-28T09:11:16.247Z,20.52
2022-09-28T09:14:09.649Z,20.59
2022-09-28T09:17:00.287Z,20.53
2022-09-28T09:20:02.802Z,20.46
2022-09-28T09:22:39.155Z,20.39
2022-09-28T09:25:18.654Z,20.46
2022-09-28T09:27:49.868Z,20.52
2022-09-28T09:30:22.472Z,20.42
2022-09-28T09:33:05.855Z,20.35
2022-09-28T09:35:37.935Z,20.50
2022-09-28T09:38:25.344Z,20.61
2022-09-28T09:41:09.302Z,20.64
2022-09-28T09:44:06.699Z,20.88
2022-09-28T09:46:52.841Z,21.03
2022-09-28T09:49:37.053Z,21.13
2022-09-28T09:55:29.845Z,21.29
2022-09-28T09:58:10.641Z,21.45
2022-09-28T10:00:43.776Z,21.69
2022-09-28T10:03:24.517Z,21.44
2022-09-28T10:06:15.646Z,21.38
2022-09-28T10:08:53.563Z,21.29
2022-09-28T10:11:32.626Z,21.31
2022-09-28T10:14:01.523Z,21.19
2022-09-28T10:17:07.867Z,21.22
2022-09-28T10:19:44.274Z,21.39
2022-09-28T10:22:24.597Z,21.31
2022-09-28T10:24:58.702Z,21.24
2022-09-28T10:27:34.081Z,21.54
2022-09-28T10:30:08.793Z,21.56
2022-09-28T10:32:48.582Z,21.54
2022-09-28T10:35:19.760Z,21.71
2022-09-28T10:37:48.631Z,21.48
2022-09-28T10:40:47.274Z,21.55
2022-09-28T10:43:30.884Z,21.51
2022-09-28T10:46:21.504Z,21.47
2022-09-28T10:49:17.466Z,21.34
2022-09-28T10:51:49.857Z,21.31
2022-09-28T10:54:29.713Z,21.27
2022-09-28T11:06:08.986Z,21.13
2022-09-28T11:08:51.027Z,21.01
2022-09-28T11:11:22.418Z,20.97
2022-09-28T11:13:53.836Z,20.98
2022-09-28T11:16:30.396Z,20.97
2022-09-28T11:19:10.239Z,20.97
2022-09-28T11:21:44.386Z,20.85
2022-09-28T11:24:19.845Z,20.96
2022-09-28T11:29:59.704Z,20.90
2022-09-28T11:32:43.882Z,21.03
2022-09-28T11:35:23.311Z,21.12
2022-09-28T11:38:00.579Z,21.06
2022-09-28T11:40:31.326Z,21.08
2022-09-28T11:42:59.906Z,21.18
2022-09-28T11:45:53.021Z,21.21
2022-09-28T11:48:46.404Z,21.12
2022-09-28T11:51:25.474Z,21.18
2022-09-28T11:53:59.889Z,21.22
2022-09-28T11:56:42.695Z,21.22
2022-09-28T11:59:59.144Z,21.33
2022-09-28T12:02:42.960Z,21.37
2022-09-28T12:05:22.499Z,21.39
2022-09-28T12:08:04.242Z,21.38
2022-09-28T12:11:04.433Z,21.36
2022-09-28T12:13:40.366Z,21.33
2022-09-28T12:19:21.059Z,21.32
2022-09-28T12:21:57.240Z,21.32
2022-09-28T12:24:37.802Z,21.31
2022-09-28T12:27:45.611Z,21.39
2022-09-28T12:30:20.599Z,21.30
2022-09-28T12:33:01.831Z,21.31
2022-09-28T12:35:41.158Z,21.32
2022-09-28T12:42:03.086Z,21.22
2022-09-28T12:45:09.510Z,21.10
2022-09-28T12:47:41.855Z,21.08
2022-09-28T12:50:39.328Z,21.10
2022-09-28T12:53:34.028Z,21.14
2022-09-28T12:56:28.783Z,21.03
2022-09-28T12:59:30.401Z,20.95
2022-09-28T13:02:16.105Z,20.94
2022-09-28T13:05:04.055Z,20.99
2022-09-28T13:10:36.319Z,21.05
2022-09-28T13:13:30.518Z,21.01
2022-09-28T13:16:14.142Z,21.02
2022-09-28T13:18:59.784Z,21.30
2022-09-28T13:21:46.315Z,21.32
2022-09-28T13:24:32.811Z,21.39
2022-09-28T13:27:13.680Z,21.90
2022-09-28T13:29:43.580Z,22.19
2022-09-28T13:32:13.682Z,22.44
2022-09-28T13:34:48.937Z,22.44
2022-09-28T13:37:26.447Z,22.23
2022-09-28T13:40:12.483Z,22.17
2022-09-28T13:42:45.856Z,22.04
2022-09-28T13:45:24.668Z,21.77
2022-09-28T13:48:22.121Z,21.65
2022-09-28T13:51:36.735Z,21.64
2022-09-28T13:54:41.772Z,21.64
2022-09-28T13:57:30.743Z,21.64
2022-09-28T14:00:11.929Z,21.51
2022-09-28T14:02:56.761Z,21.33
2022-09-28T14:05:45.107Z,21.25
2022-09-28T14:08:38.660Z,21.19
2022-09-28T14:11:29.229Z,21.14
2022-09-28T14:14:00.561Z,21.02
2022-09-28T14:16:34.694Z,21.00
2022-09-28T14:19:33.410Z,21.05
2022-09-28T14:23:05.985Z,20.97
2022-09-28T14:33:00.003Z,20.83
2022-09-28T14:39:09.311Z,20.91
2022-09-28T14:41:45.150Z,20.89
2022-09-28T14:44:19.237Z,20.88
2022-09-28T14:47:33.815Z,20.78
2022-09-28T14:50:24.406Z,20.77
2022-09-28T14:53:04.583Z,20.69
2022-09-28T14:55:41.298Z,20.64
2022-09-28T14:58:23.703Z,20.52
2022-09-28T15:06:55.163Z,20.43
2022-09-28T15:09:37.021Z,20.44
2022-09-28T15:12:33.550Z,20.38
2022-09-28T15:15:15.444Z,20.27
2022-09-28T15:18:15.260Z,20.23
2022-09-28T15:20:50.192Z,20.18
2022-09-28T15:23:33.163Z,20.09
2022-09-28T15:26:04.789Z,20.11
2022-09-28T15:28:45.368Z,20.08
2022-09-28T15:31:23.112Z,20.05
2022-09-28T15:34:09.771Z,19.97
2022-09-28T15:44:04.974Z,19.75
2022-09-28T15:46:50.403Z,19.73
2022-09-28T16:20:44.383Z,19.55
2022-09-28T16:23:34.707Z,19.50
2022-09-28T16:26:10.012Z,19.51
2022-09-28T16:31:34.942Z,19.40
2022-09-28T16:34:20.327Z,19.43
2022-09-28T16:36:51.469Z,19.49
2022-09-28T16:39:25.135Z,19.54
2022-09-28T16:42:16.654Z,19.55
2022-09-28T16:44:46.405Z,19.50
2022-09-28T16:47:18.948Z,19.45
2022-09-28T16:53:11.771Z,19.38
2022-09-28T16:55:42.482Z,19.38
2022-09-28T17:03:57.553Z,19.25
2022-09-28T17:06:28.744Z,19.25
2022-09-28T17:09:00.819Z,19.35
2022-09-28T17:11:29.983Z,19.22
2022-09-28T17:14:05.319Z,19.11
2022-09-28T17:17:06.128Z,19.01
2022-09-28T17:19:29.334Z,19.16
2022-09-28T17:22:04.090Z,19.12
2022-09-28T17:27:29.538Z,19.17
2022-09-28T17:32:51.987Z,19.16
2022-09-28T17:51:19.828Z,19.10
2022-09-28T18:02:48.461Z,18.96
2022-09-28T18:05:25.827Z,18.93
2022-09-28T18:08:01.779Z,18.93
2022-09-28T18:13:52.634Z,19.06
2022-09-28T18:17:00.738Z,18.97
2022-09-28T18:19:54.632Z,18.94
2022-09-28T18:22:28.075Z,18.87
2022-09-28T18:25:21.314Z,18.91
2022-09-28T18:27:59.780Z,18.92
2022-09-28T18:33:29.022Z,18.87
2022-09-28T18:36:23.181Z,18.85
2022-09-28T18:38:58.097Z,18.86
2022-09-28T18:41:29.072Z,18.83
2022-09-28T18:44:04.538Z,18.80
2022-09-28T18:46:40.102Z,18.82
2022-09-28T18:49:07.752Z,18.85
2022-09-28T18:51:36.144Z,18.84
2022-09-28T18:54:07.882Z,18.80
2022-09-28T18:56:37.550Z,18.79
2022-09-28T18:59:11.280Z,18.73
2022-09-28T19:01:42.123Z,18.73
2022-09-28T19:04:11.530Z,18.70
2022-09-28T19:06:44.875Z,18.67
2022-09-28T19:09:13.398Z,18.66
2022-09-28T19:11:50.549Z,18.65
2022-09-28T19:14:18.474Z,18.70
2022-09-28T19:16:46.400Z,18.72
2022-09-28T19:19:17.120Z,18.70
2022-09-28T19:21:45.338Z,18.63
2022-09-28T19:24:18.618Z,18.59
2022-09-28T19:26:47.884Z,18.61
2022-09-28T19:29:16.376Z,18.56
2022-09-28T19:31:44.146Z,18.55
2022-09-28T19:34:14.255Z,18.59
2022-09-28T19:36:46.035Z,18.59
2022-09-28T19:39:15.464Z,18.51
2022-09-28T19:41:45.878Z,18.46
2022-09-28T19:44:27.029Z,18.41
2022-09-28T19:46:57.782Z,18.37
2022-09-28T19:49:27.692Z,18.35
2022-09-28T19:52:12.253Z,18.26
2022-09-28T19:54:41.449Z,18.20
2022-09-28T19:57:09.498Z,18.25
2022-09-28T19:59:38.076Z,18.20
2022-09-28T20:02:08.343Z,18.18
2022-09-28T20:04:37.245Z,18.13
2022-09-28T20:07:05.482Z,18.11
2022-09-28T20:09:37.138Z,18.14
2022-09-28T20:12:06.178Z,18.08
2022-09-28T20:14:38.022Z,18.01
2022-09-28T20:17:09.438Z,18.02
2022-09-28T20:19:37.468Z,18.03
2022-09-28T20:22:05.894Z,18.00
2022-09-28T20:24:33.758Z,17.99
2022-09-28T20:27:04.372Z,18.02
2022-09-28T20:29:33.673Z,17.97
2022-09-28T20:32:04.544Z,17.91
2022-09-28T20:34:40.061Z,17.84
2022-09-28T20:37:09.992Z,17.88
2022-09-28T20:39:41.543Z,17.72
2022-09-28T20:42:14.447Z,17.75
2022-09-28T20:44:43.613Z,17.67
2022-09-28T20:47:12.535Z,17.61
2022-09-28T20:49:40.874Z,17.59
2022-09-28T20:52:08.975Z,17.53
2022-09-28T20:54:38.277Z,17.52
2022-09-28T20:57:17.658Z,17.46
2022-09-28T20:59:54.347Z,17.39
2022-09-28T21:02:33.952Z,17.47
2022-09-28T21:05:05.043Z,17.44
2022-09-28T21:07:48.217Z,17.39
2022-09-28T21:10:17.000Z,17.38
2022-09-28T21:12:55.730Z,17.31
2022-09-28T21:18:23.198Z,17.31
2022-09-28T21:20:53.889Z,17.32
2022-09-28T21:23:25.034Z,17.32
2022-09-28T21:26:29.121Z,17.33
2022-09-28T21:29:16.284Z,17.28
2022-09-28T21:46:34.912Z,17.29
2022-09-28T21:49:26.658Z,17.30
2022-09-28T21:51:55.548Z,17.42
2022-09-28T21:54:25.158Z,17.40
2022-09-28T21:57:01.402Z,17.38
2022-09-28T21:59:35.854Z,17.37
2022-09-28T22:02:19.013Z,17.33
2022-09-28T22:04:46.862Z,17.31
2022-09-28T22:07:26.064Z,17.34
2022-09-28T22:10:14.495Z,17.34
2022-09-28T22:12:46.189Z,17.31
2022-09-28T22:15:18.603Z,17.27
2022-09-28T22:17:48.677Z,17.16
2022-09-28T22:20:30.811Z,17.21
2022-09-28T22:23:02.652Z,17.20
2022-09-28T22:25:33.507Z,17.20
2022-09-28T22:28:10.851Z,17.17
2022-09-28T22:30:43.091Z,17.14
2022-09-28T22:33:14.405Z,17.18
2022-09-28T22:38:35.981Z,17.14
2022-09-28T22:41:06.556Z,17.14
2022-09-28T22:43:37.845Z,17.13
2022-09-28T22:46:12.434Z,17.11
2022-09-28T22:48:43.832Z,17.12
2022-09-28T22:51:14.355Z,17.08
2022-09-28T22:53:44.877Z,17.11
2022-09-28T22:56:18.416Z,17.17
2022-09-28T22:58:48.100Z,17.12
2022-09-28T23:01:21.919Z,17.08
2022-09-28T23:03:53.456Z,17.09
2022-09-28T23:06:28.406Z,17.08
2022-09-28T23:09:13.568Z,17.02
2022-09-28T23:11:42.207Z,17.03
2022-09-28T23:14:11.522Z,16.98
2022-09-28T23:16:40.640Z,16.95
2022-09-28T23:19:14.184Z,17.00
2022-09-28T23:21:44.373Z,16.91
2022-09-28T23:24:14.918Z,16.88
2022-09-28T23:26:45.375Z,16.87
2022-09-28T23:29:15.868Z,16.81
2022-09-28T23:31:46.115Z,16.78
2022-09-28T23:34:16.255Z,16.75
2022-09-28T23:36:46.063Z,16.73
2022-09-28T23:39:14.649Z,16.76
2022-09-28T23:41:46.151Z,16.73
2022-09-28T23:44:14.814Z,16.71
2022-09-28T23:46:44.885Z,16.70
2022-09-28T23:49:16.312Z,16.72
2022-09-28T23:51:45.606Z,16.83
2022-09-28T23:54:14.588Z,16.79
2022-09-28T23:56:43.886Z,16.77
2022-09-28T23:59:28.898Z,16.70
